sensor_id;sensor_type;location;lat;lon;timestamp;P1;durP1;ratioP1;P2;durP2;ratioP2
73859;SDS011;62197;51.632;13.700;2022-09-28T00:00:25;3.55;;;1.77;;
73859;SDS011;62197;51.632;13.700;2022-09-28T00:02:53;3.30;;;1.73;;
73859;SDS011;62197;51.632;13.700;2022-09-28T00:05:21;5.20;;;1.90;;
73859;SDS011;62197;51.632;13.700;2022-09-28T00:07:52;5.85;;;1.90;;
73859;SDS011;62197;51.632;13.700;2022-09-28T00:10:18;4.38;;;2.28;;
73859;SDS011;62197;51.632;13.700;2022-09-28T00:12:47;3.80;;;1.98;;
73859;SDS011;62197;51.632;13.700;2022-09-28T00:15:13;4.13;;;2.17;;
73859;SDS011;62197;51.632;13.700;2022-09-28T00:17:38;6.10;;;2.30;;
73859;SDS011;62197;51.632;13.700;2022-09-28T00:20:03;4.80;;;2.05;;
73859;SDS011;62197;51.632;13.700;2022-09-28T00:22:29;5.28;;;2.50;;
73859;SDS011;62197;51.632;13.700;2022-09-28T00:24:55;3.35;;;1.95;;
73859;SDS011;62197;51.632;13.700;2022-09-28T00:27:20;9.15;;;2.88;;
73859;SDS011;62197;51.632;13.700;2022-09-28T00:29:46;5.22;;;2.10;;
73859;SDS011;62197;51.632;13.700;2022-09-28T00:32:11;4.72;;;2.42;;
73859;SDS011;62197;51.632;13.700;2022-09-28T00:37:09;5.55;;;2.03;;
73859;SDS011;62197;51.632;13.700;2022-09-28T00:39:35;3.55;;;1.90;;
73859;SDS011;62197;51.632;13.700;2022-09-28T00:42:02;5.53;;;1.92;;
73859;SDS011;62197;51.632;13.700;2022-09-28T00:47:08;6.30;;;2.50;;
73859;SDS011;62197;51.632;13.700;2022-09-28T00:50:00;5.40;;;2.25;;
73859;SDS011;62197;51.632;13.700;2022-09-28T00:52:32;4.80;;;2.40;;
73859;SDS011;62197;51.632;13.700;2022-09-28T00:55:02;5.22;;;2.30;;
73859;SDS011;62197;51.632;13.700;2022-09-28T00:57:31;4.70;;;2.13;;
73859;SDS011;62197;51.632;13.700;2022-09-28T00:59:58;4.93;;;2.45;;
73859;SDS011;62197;51.632;13.700;2022-09-28T01:02:24;4.90;;;2.40;;
73859;SDS011;62197;51.632;13.700;2022-09-28T01:04:50;5.35;;;2.60;;
73859;SDS011;62197;51.632;13.700;2022-09-28T01:09:42;4.35;;;1.88;;
73859;SDS011;62197;51.632;13.700;2022-09-28T01:12:09;3.55;;;2.00;;
73859;SDS011;62197;51.632;13.700;2022-09-28T01:14:35;3.72;;;2.13;;
73859;SDS011;62197;51.632;13.700;2022-09-28T01:17:03;3.45;;;1.75;;
73859;SDS011;62197;51.632;13.700;2022-09-28T01:20:22;5.82;;;2.50;;
73859;SDS011;62197;51.632;13.700;2022-09-28T01:28:24;3.45;;;1.90;;
73859;SDS011;62197;51.632;13.700;2022-09-28T01:31:02;4.15;;;1.80;;
73859;SDS011;62197;51.632;13.700;2022-09-28T01:33:39;4.65;;;1.73;;
73859;SDS011;62197;51.632;13.700;2022-09-28T01:36:32;3.50;;;1.95;;
73859;SDS011;62197;51.632;13.700;2022-09-28T01:41:29;3.20;;;1.85;;
73859;SDS011;62197;51.632;13.700;2022-09-28T01:43:56;3.67;;;1.58;;
73859;SDS011;62197;51.632;13.700;2022-09-28T01:54:41;3.15;;;1.83;;
73859;SDS011;62197;51.632;13.700;2022-09-28T01:57:37;3.80;;;2.17;;
73859;SDS011;62197;51.632;13.700;2022-09-28T02:00:10;6.18;;;1.83;;
73859;SDS011;62197;51.632;13.700;2022-09-28T02:02:40;4.05;;;1.77;;
73859;SDS011;62197;51.632;13.700;2022-09-28T02:05:17;3.20;;;1.98;;
73859;SDS011;62197;51.632;13.700;2022-09-28T02:07:49;5.13;;;1.98;;
73859;SDS011;62197;51.632;13.700;2022-09-28T02:10:28;2.72;;;1.67;;
73859;SDS011;62197;51.632;13.700;2022-09-28T02:13:01;3.45;;;1.63;;
73859;SDS011;62197;51.632;13.700;2022-09-28T02:15:33;3.10;;;1.83;;
73859;SDS011;62197;51.632;13.700;2022-09-28T02:18:13;5.20;;;2.00;;
73859;SDS011;62197;51.632;13.700;2022-09-28T02:20:39;6.18;;;2.10;;
73859;SDS011;62197;51.632;13.700;2022-09-28T02:23:11;5.22;;;1.80;;
73859;SDS011;62197;51.632;13.700;2022-09-28T02:28:05;3.53;;;1.38;;
73859;SDS011;62197;51.632;13.700;2022-09-28T02:30:33;5.07;;;2.50;;
73859;SDS011;62197;51.632;13.700;2022-09-28T02:33:03;4.90;;;1.95;;
73859;SDS011;62197;51.632;13.700;2022-09-28T02:35:34;6.22;;;2.08;;
73859;SDS011;62197;51.632;13.700;2022-09-28T02:38:01;4.45;;;1.90;;
73859;SDS011;62197;51.632;13.700;2022-09-28T02:40:30;4.32;;;2.40;;
73859;SDS011;62197;51.632;13.700;2022-09-28T02:42:59;3.90;;;2.13;;
73859;SDS011;62197;51.632;13.700;2022-09-28T02:48:41;5.75;;;2.35;;
73859;SDS011;62197;51.632;13.700;2022-09-28T02:51:19;3.08;;;1.77;;
73859;SDS011;62197;51.632;13.700;2022-09-28T02:56:59;5.35;;;2.25;;
73859;SDS011;62197;51.632;13.700;2022-09-28T03:00:03;5.43;;;2.47;;
73859;SDS011;62197;51.632;13.700;2022-09-28T03:05:44;2.70;;;1.70;;
73859;SDS011;62197;51.632;13.700;2022-09-28T03:08:28;4.00;;;1.92;;
73859;SDS011;62197;51.632;13.700;2022-09-28T03:11:03;5.28;;;1.95;;
73859;SDS011;62197;51.632;13.700;2022-09-28T03:13:34;4.57;;;2.25;;
73859;SDS011;62197;51.632;13.700;2022-09-28T03:16:08;4.60;;;2.40;;
73859;SDS011;62197;51.632;13.700;2022-09-28T03:18:37;4.43;;;1.98;;
73859;SDS011;62197;51.632;13.700;2022-09-28T03:21:03;2.58;;;1.60;;
73859;SDS011;62197;51.632;13.700;2022-09-28T03:23:29;4.50;;;1.90;;
73859;SDS011;62197;51.632;13.700;2022-09-28T03:25:55;4.07;;;1.88;;
73859;SDS011;62197;51.632;13.700;2022-09-28T03:28:20;3.13;;;1.90;;
73859;SDS011;62197;51.632;13.700;2022-09-28T03:30:46;3.97;;;1.90;;
73859;SDS011;62197;51.632;13.700;2022-09-28T03:33:11;4.50;;;1.95;;
73859;SDS011;62197;51.632;13.700;2022-09-28T03:35:37;7.47;;;1.98;;
73859;SDS011;62197;51.632;13.700;2022-09-28T03:38:02;3.83;;;1.85;;
73859;SDS011;62197;51.632;13.700;2022-09-28T03:40:28;4.18;;;2.40;;
73859;SDS011;62197;51.632;13.700;2022-09-28T03:42:53;4.28;;;1.77;;
73859;SDS011;62197;51.632;13.700;2022-09-28T03:45:18;3.90;;;1.98;;
73859;SDS011;62197;51.632;13.700;2022-09-28T03:47:44;5.15;;;1.98;;
73859;SDS011;62197;51.632;13.700;2022-09-28T03:50:10;4.68;;;2.47;;
73859;SDS011;62197;51.632;13.700;2022-09-28T03:52:36;4.75;;;1.95;;
73859;SDS011;62197;51.632;13.700;2022-09-28T03:55:01;4.93;;;2.40;;
73859;SDS011;62197;51.632;13.700;2022-09-28T03:57:26;4.95;;;1.98;;
73859;SDS011;62197;51.632;13.700;2022-09-28T03:59:52;3.55;;;1.90;;
73859;SDS011;62197;51.632;13.700;2022-09-28T04:02:17;3.75;;;2.08;;
73859;SDS011;62197;51.632;13.700;2022-09-28T04:04:42;5.05;;;2.22;;
73859;SDS011;62197;51.632;13.700;2022-09-28T04:07:08;3.13;;;2.15;;
73859;SDS011;62197;51.632;13.700;2022-09-28T04:09:33;4.20;;;2.60;;
73859;SDS011;62197;51.632;13.700;2022-09-28T04:11:58;4.22;;;2.45;;
73859;SDS011;62197;51.632;13.700;2022-09-28T04:14:24;4.78;;;2.60;;
73859;SDS011;62197;51.632;13.700;2022-09-28T04:16:49;3.70;;;1.92;;
73859;SDS011;62197;51.632;13.700;2022-09-28T04:19:18;7.07;;;3.08;;
73859;SDS011;62197;51.632;13.700;2022-09-28T04:21:44;10.23;;;3.85;;
73859;SDS011;62197;51.632;13.700;2022-09-28T04:24:09;6.72;;;2.83;;
73859;SDS011;62197;51.632;13.700;2022-09-28T04:26:35;5.30;;;2.40;;
73859;SDS011;62197;51.632;13.700;2022-09-28T04:29:00;5.97;;;2.95;;
73859;SDS011;62197;51.632;13.700;2022-09-28T04:31:42;5.93;;;3.35;;
73859;SDS011;62197;51.632;13.700;2022-09-28T04:34:10;4.97;;;2.60;;
73859;SDS011;62197;51.632;13.700;2022-09-28T04:36:37;5.13;;;2.78;;
73859;SDS011;62197;51.632;13.700;2022-09-28T04:39:02;5.32;;;2.83;;
73859;SDS011;62197;51.632;13.700;2022-09-28T04:41:29;6.25;;;2.47;;
73859;SDS011;62197;51.632;13.700;2022-09-28T04:43:54;5.18;;;2.38;;
73859;SDS011;62197;51.632;13.700;2022-09-28T04:46:19;4.18;;;2.53;;
73859;SDS011;62197;51.632;13.700;2022-09-28T04:48:45;6.45;;;2.78;;
73859;SDS011;62197;51.632;13.700;2022-09-28T04:51:10;4.43;;;2.17;;
73859;SDS011;62197;51.632;13.700;2022-09-28T04:53:35;4.80;;;2.35;;
73859;SDS011;62197;51.632;13.700;2022-09-28T04:58:31;5.03;;;2.00;;
73859;SDS011;62197;51.632;13.700;2022-09-28T05:00:57;4.32;;;2.22;;
73859;SDS011;62197;51.632;13.700;2022-09-28T05:03:27;6.07;;;2.00;;
73859;SDS011;62197;51.632;13.700;2022-09-28T05:05:52;3.63;;;2.15;;
73859;SDS011;62197;51.632;13.700;2022-09-28T05:08:18;6.70;;;1.65;;
73859;SDS011;62197;51.632;13.700;2022-09-28T05:10:44;4.57;;;2.33;;
73859;SDS011;62197;51.632;13.700;2022-09-28T05:13:09;3.95;;;2.05;;
73859;SDS011;62197;51.632;13.700;2022-09-28T05:15:36;4.13;;;1.98;;
73859;SDS011;62197;51.632;13.700;2022-09-28T05:18:03;6.72;;;3.08;;
73859;SDS011;62197;51.632;13.700;2022-09-28T05:20:29;4.95;;;2.20;;
73859;SDS011;62197;51.632;13.700;2022-09-28T05:22:55;4.32;;;2.55;;
73859;SDS011;62197;51.632;13.700;2022-09-28T05:25:20;5.38;;;2.45;;
73859;SDS011;62197;51.632;13.700;2022-09-28T05:27:46;4.93;;;2.42;;
73859;SDS011;62197;51.632;13.700;2022-09-28T05:30:11;7.80;;;3.05;;
73859;SDS011;62197;51.632;13.700;2022-09-28T05:32:40;8.63;;;3.22;;
73859;SDS011;62197;51.632;13.700;2022-09-28T05:35:06;6.97;;;3.25;;
73859;SDS011;62197;51.632;13.700;2022-09-28T05:37:32;7.03;;;3.33;;
73859;SDS011;62197;51.632;13.700;2022-09-28T05:39:57;6.13;;;3.05;;
73859;SDS011;62197;51.632;13.700;2022-09-28T05:42:23;7.00;;;3.60;;
73859;SDS011;62197;51.632;13.700;2022-09-28T05:44:48;6.97;;;3.53;;
73859;SDS011;62197;51.632;13.700;2022-09-28T05:47:13;7.13;;;3.83;;
73859;SDS011;62197;51.632;13.700;2022-09-28T05:49:39;6.82;;;3.63;;
73859;SDS011;62197;51.632;13.700;2022-09-28T05:52:04;8.90;;;4.15;;
73859;SDS011;62197;51.632;13.700;2022-09-28T05:54:29;10.85;;;3.92;;
73859;SDS011;62197;51.632;13.700;2022-09-28T05:56:54;29.55;;;7.40;;
73859;SDS011;62197;51.632;13.700;2022-09-28T05:59:20;15.77;;;4.20;;
73859;SDS011;62197;51.632;13.700;2022-09-28T06:01:45;10.02;;;3.42;;
73859;SDS011;62197;51.632;13.700;2022-09-28T06:04:11;14.43;;;4.50;;
73859;SDS011;62197;51.632;13.700;2022-09-28T06:06:36;20.77;;;4.85;;
73859;SDS011;62197;51.632;13.700;2022-09-28T06:09:02;13.10;;;4.22;;
73859;SDS011;62197;51.632;13.700;2022-09-28T06:11:28;7.30;;;3.03;;
73859;SDS011;62197;51.632;13.700;2022-09-28T06:13:55;7.25;;;3.20;;
73859;SDS011;62197;51.632;13.700;2022-09-28T06:16:20;6.38;;;3.13;;
73859;SDS011;62197;51.632;13.700;2022-09-28T06:18:45;7.55;;;3.05;;
73859;SDS011;62197;51.632;13.700;2022-09-28T06:21:11;5.30;;;2.67;;
73859;SDS011;62197;51.632;13.700;2022-09-28T06:23:37;5.50;;;2.95;;
73859;SDS011;62197;51.632;13.700;2022-09-28T06:26:02;10.95;;;3.35;;
73859;SDS011;62197;51.632;13.700;2022-09-28T06:28:28;6.30;;;2.50;;
73859;SDS011;62197;51.632;13.700;2022-09-28T06:30:53;7.13;;;2.85;;
73859;SDS011;62197;51.632;13.700;2022-09-28T06:35:44;11.50;;;3.27;;
73859;SDS011;62197;51.632;13.700;2022-09-28T06:38:09;70.63;;;14.80;;
73859;SDS011;62197;51.632;13.700;2022-09-28T06:40:35;26.20;;;6.18;;
73859;SDS011;62197;51.632;13.700;2022-09-28T06:43:02;22.67;;;5.78;;
73859;SDS011;62197;51.632;13.700;2022-09-28T06:45:34;12.73;;;3.88;;
73859;SDS011;62197;51.632;13.700;2022-09-28T06:48:00;16.08;;;4.07;;
73859;SDS011;62197;51.632;13.700;2022-09-28T06:50:27;10.90;;;2.95;;
73859;SDS011;62197;51.632;13.700;2022-09-28T06:52:58;4.70;;;2.30;;
73859;SDS011;62197;51.632;13.700;2022-09-28T06:55:25;20.30;;;4.60;;
73859;SDS011;62197;51.632;13.700;2022-09-28T06:57:57;7.07;;;3.13;;
73859;SDS011;62197;51.632;13.700;2022-09-28T07:00:24;9.90;;;2.40;;
73859;SDS011;62197;51.632;13.700;2022-09-28T07:02:51;4.30;;;2.28;;
73859;SDS011;62197;51.632;13.700;2022-09-28T07:07:43;3.63;;;2.00;;
73859;SDS011;62197;51.632;13.700;2022-09-28T07:12:34;3.20;;;2.00;;
73859;SDS011;62197;51.632;13.700;2022-09-28T07:17:25;2.70;;;1.57;;
73859;SDS011;62197;51.632;13.700;2022-09-28T07:22:17;3.35;;;1.40;;
73859;SDS011;62197;51.632;13.700;2022-09-28T07:24:45;3.90;;;1.42;;
73859;SDS011;62197;51.632;13.700;2022-09-28T07:27:12;5.97;;;1.58;;
73859;SDS011;62197;51.632;13.700;2022-09-28T07:32:02;2.50;;;1.47;;
73859;SDS011;62197;51.632;13.700;2022-09-28T07:36:53;2.77;;;1.73;;
73859;SDS011;62197;51.632;13.700;2022-09-28T07:39:21;5.65;;;1.90;;
73859;SDS011;62197;51.632;13.700;2022-09-28T07:44:12;5.22;;;1.45;;
73859;SDS011;62197;51.632;13.700;2022-09-28T07:49:03;2.47;;;1.40;;
73859;SDS011;62197;51.632;13.700;2022-09-28T07:51:29;4.95;;;2.22;;
73859;SDS011;62197;51.632;13.700;2022-09-28T07:56:20;3.50;;;1.50;;
73859;SDS011;62197;51.632;13.700;2022-09-28T08:01:11;2.58;;;1.60;;
73859;SDS011;62197;51.632;13.700;2022-09-28T08:03:39;4.82;;;2.17;;
73859;SDS011;62197;51.632;13.700;2022-09-28T08:08:34;4.13;;;1.60;;
73859;SDS011;62197;51.632;13.700;2022-09-28T08:11:01;3.15;;;1.45;;
73859;SDS011;62197;51.632;13.700;2022-09-28T08:15:52;6.50;;;2.90;;
73859;SDS011;62197;51.632;13.700;2022-09-28T08:18:18;4.95;;;2.20;;
73859;SDS011;62197;51.632;13.700;2022-09-28T08:20:44;2.90;;;1.60;;
73859;SDS011;62197;51.632;13.700;2022-09-28T08:23:29;3.00;;;1.85;;
73859;SDS011;62197;51.632;13.700;2022-09-28T08:28:20;5.57;;;1.73;;
73859;SDS011;62197;51.632;13.700;2022-09-28T08:30:47;7.35;;;2.17;;
73859;SDS011;62197;51.632;13.700;2022-09-28T08:35:38;3.60;;;1.83;;
73859;SDS011;62197;51.632;13.700;2022-09-28T08:38:05;4.60;;;2.13;;
73859;SDS011;62197;51.632;13.700;2022-09-28T08:40:33;3.90;;;1.73;;
73859;SDS011;62197;51.632;13.700;2022-09-28T08:46:11;5.38;;;2.22;;
73859;SDS011;62197;51.632;13.700;2022-09-28T08:48:53;4.13;;;2.30;;
73859;SDS011;62197;51.632;13.700;2022-09-28T08:51:41;5.38;;;2.60;;
73859;SDS011;62197;51.632;13.700;2022-09-28T08:54:26;5.53;;;2.75;;
73859;SDS011;62197;51.632;13.700;2022-09-28T08:56:54;5.70;;;3.30;;
73859;SDS011;62197;51.632;13.700;2022-09-28T08:59:27;8.45;;;3.47;;
73859;SDS011;62197;51.632;13.700;2022-09-28T09:02:02;11.73;;;4.03;;
73859;SDS011;62197;51.632;13.700;2022-09-28T09:04:28;8.02;;;3.85;;
73859;SDS011;62197;51.632;13.700;2022-09-28T09:09:56;6.85;;;3.83;;
73859;SDS011;62197;51.632;13.700;2022-09-28T09:20:56;8.55;;;4.25;;
73859;SDS011;62197;51.632;13.700;2022-09-28T09:26:15;9.05;;;3.92;;
73859;SDS011;62197;51.632;13.700;2022-09-28T09:33:54;10.48;;;4.70;;
73859;SDS011;62197;51.632;13.700;2022-09-28T09:36:52;10.18;;;5.00;;
73859;SDS011;62197;51.632;13.700;2022-09-28T09:39:54;7.72;;;4.32;;
73859;SDS011;62197;51.632;13.700;2022-09-28T09:45:18;10.25;;;4.68;;
73859;SDS011;62197;51.632;13.700;2022-09-28T09:47:55;12.15;;;6.32;;
73859;SDS011;62197;51.632;13.700;2022-09-28T09:50:29;11.85;;;5.43;;
73859;SDS011;62197;51.632;13.700;2022-09-28T09:53:09;8.02;;;4.78;;
73859;SDS011;62197;51.632;13.700;2022-09-28T09:55:49;8.23;;;4.78;;
73859;SDS011;62197;51.632;13.700;2022-09-28T10:00:57;9.23;;;5.00;;
73859;SDS011;62197;51.632;13.700;2022-09-28T10:03:30;9.85;;;4.97;;
73859;SDS011;62197;51.632;13.700;2022-09-28T10:08:47;8.45;;;4.75;;
73859;SDS011;62197;51.632;13.700;2022-09-28T10:11:27;8.68;;;5.10;;
73859;SDS011;62197;51.632;13.700;2022-09-28T10:14:00;10.32;;;5.60;;
73859;SDS011;62197;51.632;13.700;2022-09-28T10:18:51;12.00;;;5.97;;
73859;SDS011;62197;51.632;13.700;2022-09-28T10:21:17;11.23;;;5.65;;
73859;SDS011;62197;51.632;13.700;2022-09-28T10:23:45;10.52;;;5.70;;
73859;SDS011;62197;51.632;13.700;2022-09-28T10:26:19;10.77;;;5.50;;
73859;SDS011;62197;51.632;13.700;2022-09-28T10:28:58;9.48;;;4.78;;
73859;SDS011;62197;51.632;13.700;2022-09-28T10:31:40;9.45;;;5.35;;
73859;SDS011;62197;51.632;13.700;2022-09-28T10:34:09;11.18;;;5.35;;
73859;SDS011;62197;51.632;13.700;2022-09-28T10:36:51;8.95;;;4.72;;
73859;SDS011;62197;51.632;13.700;2022-09-28T10:39:35;9.85;;;5.45;;
73859;SDS011;62197;51.632;13.700;2022-09-28T10:42:06;9.25;;;4.82;;
73859;SDS011;62197;51.632;13.700;2022-09-28T10:44:34;10.45;;;5.22;;
73859;SDS011;62197;51.632;13.700;2022-09-28T10:47:13;10.50;;;5.57;;
73859;SDS011;62197;51.632;13.700;2022-09-28T10:49:42;8.70;;;4.72;;
73859;SDS011;62197;51.632;13.700;2022-09-28T10:54:59;9.40;;;5.78;;
73859;SDS011;62197;51.632;13.700;2022-09-28T11:00:00;11.23;;;5.50;;
73859;SDS011;62197;51.632;13.700;2022-09-28T11:02:31;9.82;;;4.80;;
73859;SDS011;62197;51.632;13.700;2022-09-28T11:05:01;10.65;;;5.28;;
73859;SDS011;62197;51.632;13.700;2022-09-28T11:07:30;10.15;;;5.43;;
73859;SDS011;62197;51.632;13.700;2022-09-28T11:09:57;9.40;;;5.55;;
73859;SDS011;62197;51.632;13.700;2022-09-28T11:12:25;9.13;;;5.18;;
73859;SDS011;62197;51.632;13.700;2022-09-28T11:14:59;7.68;;;4.45;;
73859;SDS011;62197;51.632;13.700;2022-09-28T11:17:45;7.85;;;4.40;;
73859;SDS011;62197;51.632;13.700;2022-09-28T11:22:48;9.80;;;5.93;;
73859;SDS011;62197;51.632;13.700;2022-09-28T11:27:53;15.40;;;7.18;;
73859;SDS011;62197;51.632;13.700;2022-09-28T11:33:16;8.15;;;4.05;;
73859;SDS011;62197;51.632;13.700;2022-09-28T11:44:37;1.48;;;0.88;;
73859;SDS011;62197;51.632;13.700;2022-09-28T11:47:24;1.40;;;0.88;;
73859;SDS011;62197;51.632;13.700;2022-09-28T11:55:49;1.95;;;1.00;;
73859;SDS011;62197;51.632;13.700;2022-09-28T11:58:28;2.33;;;1.23;;
73859;SDS011;62197;51.632;13.700;2022-09-28T12:03:44;2.63;;;1.25;;
73859;SDS011;62197;51.632;13.700;2022-09-28T12:06:17;2.60;;;1.13;;
73859;SDS011;62197;51.632;13.700;2022-09-28T12:08:47;2.22;;;1.50;;
73859;SDS011;62197;51.632;13.700;2022-09-28T12:11:25;1.08;;;0.85;;
73859;SDS011;62197;51.632;13.700;2022-09-28T12:13:56;2.78;;;1.17;;
73859;SDS011;62197;51.632;13.700;2022-09-28T12:16:26;2.17;;;1.05;;
73859;SDS011;62197;51.632;13.700;2022-09-28T12:18:57;2.28;;;1.27;;
73859;SDS011;62197;51.632;13.700;2022-09-28T12:21:30;1.67;;;1.02;;
73859;SDS011;62197;51.632;13.700;2022-09-28T12:24:17;2.15;;;1.10;;
73859;SDS011;62197;51.632;13.700;2022-09-28T12:26:48;1.92;;;1.27;;
73859;SDS011;62197;51.632;13.700;2022-09-28T12:29:24;2.00;;;1.80;;
73859;SDS011;62197;51.632;13.700;2022-09-28T12:45:35;3.00;;;1.73;;
73859;SDS011;62197;51.632;13.700;2022-09-28T12:48:15;1.58;;;0.90;;
73859;SDS011;62197;51.632;13.700;2022-09-28T12:50:57;1.60;;;1.02;;
73859;SDS011;62197;51.632;13.700;2022-09-28T12:59:12;1.45;;;1.00;;
73859;SDS011;62197;51.632;13.700;2022-09-28T13:04:57;2.60;;;1.63;;
73859;SDS011;62197;51.632;13.700;2022-09-28T13:08:26;3.75;;;1.70;;
73859;SDS011;62197;51.632;13.700;2022-09-28T13:10:39;3.40;;;1.67;;
73859;SDS011;62197;51.632;13.700;2022-09-28T13:13:26;3.50;;;2.10;;
73859;SDS011;62197;51.632;13.700;2022-09-28T13:16:21;2.25;;;1.30;;
73859;SDS011;62197;51.632;13.700;2022-09-28T13:18:53;1.92;;;1.23;;
73859;SDS011;62197;51.632;13.700;2022-09-28T13:21:33;1.58;;;0.85;;
73859;SDS011;62197;51.632;13.700;2022-09-28T13:24:11;1.45;;;0.85;;
73859;SDS011;62197;51.632;13.700;2022-09-28T13:26:42;2.13;;;1.08;;
73859;SDS011;62197;51.632;13.700;2022-09-28T13:29:13;1.90;;;1.40;;
73859;SDS011;62197;51.632;13.700;2022-09-28T13:31:50;2.72;;;1.10;;
73859;SDS011;62197;51.632;13.700;2022-09-28T13:34:18;1.92;;;1.20;;
73859;SDS011;62197;51.632;13.700;2022-09-28T13:37:06;1.38;;;0.93;;
73859;SDS011;62197;51.632;13.700;2022-09-28T13:42:01;1.08;;;0.70;;
73859;SDS011;62197;51.632;13.700;2022-09-28T13:52:47;1.00;;;0.45;;
73859;SDS011;62197;51.632;13.700;2022-09-28T13:58:02;0.70;;;0.60;;
73859;SDS011;62197;51.632;13.700;2022-09-28T14:00:45;1.05;;;0.52;;
73859;SDS011;62197;51.632;13.700;2022-09-28T14:05:46;0.82;;;0.43;;
73859;SDS011;62197;51.632;13.700;2022-09-28T14:08:21;0.63;;;0.30;;
73859;SDS011;62197;51.632;13.700;2022-09-28T14:13:57;1.42;;;0.30;;
73859;SDS011;62197;51.632;13.700;2022-09-28T14:16:26;0.55;;;0.47;;
73859;SDS011;62197;51.632;13.700;2022-09-28T14:18:59;1.92;;;0.40;;
73859;SDS011;62197;51.632;13.700;2022-09-28T14:29:41;3.28;;;1.25;;
73859;SDS011;62197;51.632;13.700;2022-09-28T14:34:42;0.77;;;0.57;;
73859;SDS011;62197;51.632;13.700;2022-09-28T14:43:24;1.60;;;0.80;;
73859;SDS011;62197;51.632;13.700;2022-09-28T14:48:41;1.45;;;0.75;;
73859;SDS011;62197;51.632;13.700;2022-09-28T14:54:02;0.57;;;0.40;;
73859;SDS011;62197;51.632;13.700;2022-09-28T14:56:42;0.43;;;0.40;;
73859;SDS011;62197;51.632;13.700;2022-09-28T14:59:21;1.33;;;0.70;;
73859;SDS011;62197;51.632;13.700;2022-09-28T15:01:56;0.55;;;0.45;;
73859;SDS011;62197;51.632;13.700;2022-09-28T15:04:29;1.48;;;0.52;;
73859;SDS011;62197;51.632;13.700;2022-09-28T15:06:55;0.68;;;0.60;;
73859;SDS011;62197;51.632;13.700;2022-09-28T15:09:28;0.60;;;0.45;;
73859;SDS011;62197;51.632;13.700;2022-09-28T15:12:00;0.95;;;0.65;;
73859;SDS011;62197;51.632;13.700;2022-09-28T15:14:30;1.38;;;0.95;;
73859;SDS011;62197;51.632;13.700;2022-09-28T15:17:00;1.45;;;0.93;;
73859;SDS011;62197;51.632;13.700;2022-09-28T15:19:36;1.38;;;0.90;;
73859;SDS011;62197;51.632;13.700;2022-09-28T15:22:16;1.30;;;0.70;;
73859;SDS011;62197;51.632;13.700;2022-09-28T15:24:44;2.25;;;0.70;;
73859;SDS011;62197;51.632;13.700;2022-09-28T15:27:18;1.42;;;0.93;;
73859;SDS011;62197;51.632;13.700;2022-09-28T15:32:23;0.70;;;0.60;;
73859;SDS011;62197;51.632;13.700;2022-09-28T15:34:49;0.88;;;0.52;;
73859;SDS011;62197;51.632;13.700;2022-09-28T15:37:23;0.57;;;0.45;;
73859;SDS011;62197;51.632;13.700;2022-09-28T15:39:53;2.63;;;0.60;;
73859;SDS011;62197;51.632;13.700;2022-09-28T15:42:22;1.52;;;0.50;;
73859;SDS011;62197;51.632;13.700;2022-09-28T15:47:39;2.78;;;0.85;;
73859;SDS011;62197;51.632;13.700;2022-09-28T15:53:12;2.45;;;0.70;;
73859;SDS011;62197;51.632;13.700;2022-09-28T15:55:42;1.23;;;0.90;;
73859;SDS011;62197;51.632;13.700;2022-09-28T16:00:38;1.27;;;0.80;;
73859;SDS011;62197;51.632;13.700;2022-09-28T16:05:45;2.20;;;0.73;;
73859;SDS011;62197;51.632;13.700;2022-09-28T16:08:20;2.92;;;1.15;;
73859;SDS011;62197;51.632;13.700;2022-09-28T16:11:50;1.13;;;0.80;;
73859;SDS011;62197;51.632;13.700;2022-09-28T16:16:48;2.03;;;0.90;;
73859;SDS011;62197;51.632;13.700;2022-09-28T16:19:22;0.95;;;0.77;;
73859;SDS011;62197;51.632;13.700;2022-09-28T16:21:50;2.42;;;0.90;;
73859;SDS011;62197;51.632;13.700;2022-09-28T16:24:38;1.10;;;0.85;;
73859;SDS011;62197;51.632;13.700;2022-09-28T16:27:07;2.42;;;0.90;;
73859;SDS011;62197;51.632;13.700;2022-09-28T16:35:19;1.73;;;0.90;;
73859;SDS011;62197;51.632;13.700;2022-09-28T16:38:00;1.90;;;1.33;;
73859;SDS011;62197;51.632;13.700;2022-09-28T16:40:28;1.50;;;0.90;;
73859;SDS011;62197;51.632;13.700;2022-09-28T16:42:56;2.17;;;1.27;;
73859;SDS011;62197;51.632;13.700;2022-09-28T16:45:23;2.85;;;1.48;;
73859;SDS011;62197;51.632;13.700;2022-09-28T16:50:16;1.70;;;0.93;;
73859;SDS011;62197;51.632;13.700;2022-09-28T16:52:46;4.03;;;2.10;;
73859;SDS011;62197;51.632;13.700;2022-09-28T16:55:32;3.83;;;1.40;;
73859;SDS011;62197;51.632;13.700;2022-09-28T17:00:23;4.33;;;1.47;;
73859;SDS011;62197;51.632;13.700;2022-09-28T17:02:50;1.88;;;1.02;;
73859;SDS011;62197;51.632;13.700;2022-09-28T17:05:17;1.70;;;1.30;;
73859;SDS011;62197;51.632;13.700;2022-09-28T17:07:44;1.88;;;1.10;;
73859;SDS011;62197;51.632;13.700;2022-09-28T17:10:24;2.25;;;1.30;;
73859;SDS011;62197;51.632;13.700;2022-09-28T17:12:56;2.55;;;1.30;;
73859;SDS011;62197;51.632;13.700;2022-09-28T17:15:21;2.78;;;1.20;;
73859;SDS011;62197;51.632;13.700;2022-09-28T17:17:47;2.38;;;1.40;;
73859;SDS011;62197;51.632;13.700;2022-09-28T17:20:20;2.17;;;1.52;;
73859;SDS011;62197;51.632;13.700;2022-09-28T17:22:48;2.25;;;1.40;;
73859;SDS011;62197;51.632;13.700;2022-09-28T17:25:14;2.92;;;1.75;;
73859;SDS011;62197;51.632;13.700;2022-09-28T17:27:40;2.15;;;1.30;;
73859;SDS011;62197;51.632;13.700;2022-09-28T17:30:09;2.60;;;1.83;;
73859;SDS011;62197;51.632;13.700;2022-09-28T17:32:35;2.72;;;1.77;;
73859;SDS011;62197;51.632;13.700;2022-09-28T17:35:01;3.10;;;2.25;;
73859;SDS011;62197;51.632;13.700;2022-09-28T17:37:27;3.42;;;2.28;;
73859;SDS011;62197;51.632;13.700;2022-09-28T17:39:52;4.25;;;2.13;;
73859;SDS011;62197;51.632;13.700;2022-09-28T17:42:18;5.68;;;2.80;;
73859;SDS011;62197;51.632;13.700;2022-09-28T17:44:43;4.57;;;2.00;;
73859;SDS011;62197;51.632;13.700;2022-09-28T17:47:08;4.13;;;2.25;;
73859;SDS011;62197;51.632;13.700;2022-09-28T17:49:35;4.80;;;2.92;;
73859;SDS011;62197;51.632;13.700;2022-09-28T17:52:01;3.00;;;2.08;;
73859;SDS011;62197;51.632;13.700;2022-09-28T17:54:27;3.83;;;2.42;;
73859;SDS011;62197;51.632;13.700;2022-09-28T17:56:53;9.73;;;4.95;;
73859;SDS011;62197;51.632;13.700;2022-09-28T17:59:18;8.90;;;5.00;;
73859;SDS011;62197;51.632;13.700;2022-09-28T18:01:43;10.30;;;5.60;;
73859;SDS011;62197;51.632;13.700;2022-09-28T18:04:09;9.32;;;4.57;;
73859;SDS011;62197;51.632;13.700;2022-09-28T18:06:39;7.35;;;4.63;;
73859;SDS011;62197;51.632;13.700;2022-09-28T18:09:06;14.30;;;7.80;;
73859;SDS011;62197;51.632;13.700;2022-09-28T18:11:32;13.90;;;8.07;;
73859;SDS011;62197;51.632;13.700;2022-09-28T18:13:59;12.38;;;7.03;;
73859;SDS011;62197;51.632;13.700;2022-09-28T18:16:24;11.18;;;6.30;;
73859;SDS011;62197;51.632;13.700;2022-09-28T18:18:52;9.93;;;5.80;;
73859;SDS011;62197;51.632;13.700;2022-09-28T18:21:18;11.18;;;5.88;;
73859;SDS011;62197;51.632;13.700;2022-09-28T18:23:43;9.38;;;6.35;;
73859;SDS011;62197;51.632;13.700;2022-09-28T18:26:12;11.02;;;6.55;;
73859;SDS011;62197;51.632;13.700;2022-09-28T18:28:39;10.68;;;5.75;;
73859;SDS011;62197;51.632;13.700;2022-09-28T18:31:08;9.82;;;5.45;;
73859;SDS011;62197;51.632;13.700;2022-09-28T18:33:35;8.60;;;5.22;;
73859;SDS011;62197;51.632;13.700;2022-09-28T18:36:01;7.85;;;5.13;;
73859;SDS011;62197;51.632;13.700;2022-09-28T18:38:27;10.65;;;5.68;;
73859;SDS011;62197;51.632;13.700;2022-09-28T18:40:53;9.63;;;5.35;;